Time;durP1;ratioP1;P1;durP2;ratioP2;P2;SDS_P1;SDS_P2;PMS_P1;PMS_P2;Temp;Humidity;BMP_temperature;BMP_pressure;BME280_temperature;BME280_humidity;BME280_pressure;Samples;Min_cycle;Max_cycle;Signal;HPM_P1;HPM_P2
2022/05/20 00:00:33;;;;;;;17.47;6.30;;;;;;;10.62;74.70;95938.69;5054158;28;20163;-77
2022/05/20 00:02:59;;;;;;;10.23;4.67;;;;;;;10.37;74.93;95910.03;5054242;28;20553;-78
2022/05/20 00:05:27;;;;;;;10.10;5.13;;;;;;;10.29;75.26;95906.69;5027454;28;20178;-78
2022/05/20 00:07:54;;;;;;;8.80;4.77;;;;;;;10.47;75.16;95936.88;5048383;28;20171;-78
2022/05/20 00:10:20;;;;;;;13.90;5.67;;;;;;;10.48;75.63;95937.69;5053582;28;20187;-78
2022/05/20 00:12:46;;;;;;;18.70;5.40;;;;;;;10.33;75.99;95907.94;5054065;28;20171;-78
2022/05/20 00:15:15;;;;;;;11.73;4.67;;;;;;;10.47;75.55;95925.53;5054017;28;20193;-78
2022/05/20 00:17:41;;;;;;;10.23;5.17;;;;;;;10.21;75.61;95892.59;5053933;28;20215;-78
2022/05/20 00:20:08;;;;;;;9.93;5.23;;;;;;;10.41;75.78;95934.97;5036075;28;20193;-78
2022/05/20 00:22:33;;;;;;;11.33;4.80;;;;;;;10.30;76.19;95921.44;5053739;28;20228;-78
2022/05/20 00:27:43;;;;;;;11.13;4.33;;;;;;;10.32;76.09;95936.06;5053253;28;20171;-78
2022/05/20 00:30:09;;;;;;;7.03;4.30;;;;;;;10.31;76.45;95936.25;5054272;28;20250;-78
2022/05/20 00:32:35;;;;;;;7.73;4.70;;;;;;;10.29;76.48;95943.53;5053921;28;20190;-78
2022/05/20 00:35:01;;;;;;;9.73;4.43;;;;;;;10.20;76.80;95935.69;5053821;28;20175;-78
2022/05/20 00:37:26;;;;;;;9.33;4.23;;;;;;;10.22;77.10;95943.41;5032820;28;20175;-78
2022/05/20 00:39:52;;;;;;;8.90;4.57;;;;;;;10.23;76.96;95952.13;5053714;28;20182;-78
2022/05/20 00:42:18;;;;;;;8.87;4.50;;;;;;;10.24;76.89;95959.03;5053520;28;20637;-78
2022/05/20 00:44:44;;;;;;;8.47;4.23;;;;;;;10.25;76.93;95956.22;5053283;28;20171;-78
2022/05/20 00:47:12;;;;;;;11.70;3.60;;;;;;;10.21;nan;95963.66;5051871;28;20172;-78
2022/05/20 00:49:41;;;;;;;9.53;3.67;;;;;;;10.17;76.67;95959.75;5053058;28;20199;-78
2022/05/20 00:52:09;;;;;;;8.50;3.67;;;;;;;9.96;76.73;95933.31;5053331;28;20250;-78
2022/05/20 00:54:45;;;;;;;7.33;3.63;;;;;;;10.09;77.18;95954.56;5053031;28;20703;-79
2022/05/20 00:57:19;;;;;;;5.47;3.43;;;;;;;10.13;76.74;95957.63;5053156;28;20205;-78
2022/05/20 00:59:53;;;;;;;5.87;3.43;;;;;;;10.09;76.20;95951.94;5053696;28;20225;-79
2022/05/20 01:02:22;;;;;;;3.97;3.07;;;;;;;9.94;75.80;95937.94;5030088;28;20543;-80
2022/05/20 01:04:49;;;;;;;6.97;3.53;;;;;;;10.04;75.78;95953.44;5053104;28;20178;-80
2022/05/20 01:07:17;;;;;;;7.70;2.97;;;;;;;9.99;75.72;95937.41;5053181;28;20203;-80
2022/05/20 01:09:42;;;;;;;6.23;3.03;;;;;;;9.91;75.97;95932.22;5052874;28;20194;-79
2022/05/20 01:12:08;;;;;;;6.20;3.57;;;;;;;9.82;76.19;95919.16;5035200;28;20167;-79
2022/05/20 01:14:34;;;;;;;7.30;3.20;;;;;;;9.95;76.04;95944.00;5053048;28;20167;-79
2022/05/20 01:17:00;;;;;;;5.43;2.97;;;;;;;9.92;76.27;95949.63;5053158;28;20554;-79
2022/05/20 01:19:38;;;;;;;10.10;3.43;;;;;;;9.83;76.54;95939.19;5042836;28;20530;-79
2022/05/20 01:22:07;;;;;;;7.53;2.90;;;;;;;9.75;76.37;95925.31;5035059;28;20175;-79
2022/05/20 01:24:33;;;;;;;17.27;3.50;;;;;;;9.80;77.01;95931.66;5034629;28;20980;-79
2022/05/20 01:26:59;;;;;;;7.23;3.50;;;;;;;9.63;77.19;95913.59;5052579;28;20190;-79
2022/05/20 01:29:25;;;;;;;7.17;3.30;;;;;;;9.80;77.26;95936.09;5052542;28;20222;-79
2022/05/20 01:31:51;;;;;;;7.83;3.47;;;;;;;9.64;77.50;95907.34;5052640;28;20601;-79
2022/05/20 01:34:16;;;;;;;5.43;2.97;;;;;;;9.73;77.23;95928.13;5052402;28;20246;-80
2022/05/20 01:36:41;;;;;;;13.00;4.30;;;;;;;9.80;77.08;95938.72;5042069;28;20186;-81
2022/05/20 01:39:07;;;;;;;6.80;2.93;;;;;;;9.75;77.11;95930.56;5053553;28;20190;-81
2022/05/20 01:41:51;;;;;;;10.90;3.30;;;;;;;9.68;77.22;95913.88;5053485;28;20669;-81
2022/05/20 01:44:32;;;;;;;6.27;2.97;;;;;;;9.82;76.88;95940.19;5049833;28;20218;-81
2022/05/20 01:47:34;;;;;;;10.40;3.37;;;;;;;9.76;76.60;95943.53;5037558;28;20176;-81
2022/05/20 01:50:18;;;;;;;5.13;2.93;;;;;;;9.71;76.69;95952.94;5050930;28;20182;-81
2022/05/20 01:53:03;;;;;;;7.73;3.63;;;;;;;9.61;77.05;95949.75;5031556;28;20257;-81
2022/05/20 01:56:00;;;;;;;8.53;3.40;;;;;;;9.59;76.55;95943.88;5053136;28;20250;-81
2022/05/20 01:58:31;;;;;;;6.63;3.10;;;;;;;9.47;76.39;95932.94;5053039;28;20159;-80
2022/05/20 02:01:01;;;;;;;5.17;3.00;;;;;;;9.54;76.89;95949.63;5038013;28;20171;-81
2022/05/20 02:03:44;;;;;;;3.70;2.47;;;;;;;9.45;77.07;95932.31;5040244;28;20171;-80
2022/05/20 02:06:16;;;;;;;7.67;3.03;;;;;;;9.58;76.50;95950.13;5050873;28;20658;-80
2022/05/20 02:08:58;;;;;;;6.87;2.53;;;;;;;9.59;76.67;95949.13;5052311;28;20521;-80
2022/05/20 02:11:41;;;;;;;3.33;2.67;;;;;;;9.57;76.54;95954.56;5049808;28;20780;-80
2022/05/20 02:14:12;;;;;;;6.57;2.87;;;;;;;9.57;76.70;95953.72;5050678;28;20186;-80
2022/05/20 02:16:44;;;;;;;3.93;2.40;;;;;;;9.36;77.12;95923.66;5051873;28;20564;-81
2022/05/20 02:19:13;;;;;;;4.90;3.73;;;;;;;9.50;76.43;95939.66;5051546;28;20185;-79
2022/05/20 02:21:42;;;;;;;2.97;2.47;;;;;;;9.55;76.40;95953.09;5033640;28;20175;-80
2022/05/20 02:24:13;;;;;;;7.10;3.73;;;;;;;9.22;76.63;95903.44;5050337;28;20178;-80
2022/05/20 02:26:42;;;;;;;9.80;2.77;;;;;;;9.31;76.53;95915.50;5051530;28;20650;-80
2022/05/20 02:29:15;;;;;;;8.17;3.00;;;;;;;9.54;76.71;95959.34;5051343;28;20189;-80
2022/05/20 02:32:06;;;;;;;5.57;2.80;;;;;;;9.43;77.18;95952.69;5051664;28;20592;-80
2022/05/20 02:34:34;;;;;;;9.43;3.60;;;;;;;9.46;76.59;95957.59;5049598;28;20168;-80
2022/05/20 02:37:01;;;;;;;6.57;3.10;;;;;;;9.36;76.12;95957.00;5051663;28;20174;-80
2022/05/20 02:39:27;;;;;;;6.50;4.13;;;;;;;9.35;76.16;95956.19;5052208;28;20852;-80
2022/05/20 02:41:53;;;;;;;6.63;3.70;;;;;;;9.34;76.02;95961.66;5051407;28;20173;-80
2022/05/20 02:44:19;;;;;;;7.07;3.17;;;;;;;9.20;76.65;95944.81;5033750;28;20171;-80
2022/05/20 02:46:48;;;;;;;5.47;3.20;;;;;;;9.32;76.51;95963.63;5052191;28;20186;-80
2022/05/20 02:49:14;;;;;;;5.47;2.70;;;;;;;9.28;76.82;95952.63;5051769;28;20179;-80
2022/05/20 02:51:40;;;;;;;6.67;3.07;;;;;;;9.20;77.23;95936.13;5051098;28;20250;-80
2022/05/20 02:54:05;;;;;;;4.10;3.00;;;;;;;9.11;77.30;95926.66;5051351;28;20282;-80
2022/05/20 02:56:32;;;;;;;5.97;3.70;;;;;;;9.04;76.98;95906.34;5051124;28;20174;-80
2022/05/20 03:04:26;;;;;;;17.77;5.53;;;;;;;9.19;77.00;95935.28;5051104;28;20186;-80
2022/05/20 03:06:52;;;;;;;9.33;4.50;;;;;;;9.12;77.00;95928.28;5050772;28;20198;-80
2022/05/20 03:09:22;;;;;;;9.63;4.23;;;;;;;8.94;77.03;95908.38;5050551;28;20170;-80
2022/05/20 03:11:48;;;;;;;12.03;4.60;;;;;;;9.18;77.32;95944.16;5049309;28;20190;-80
2022/05/20 03:14:17;;;;;;;11.77;5.33;;;;;;;8.97;77.55;95918.56;5050512;28;21751;-80
2022/05/20 03:16:43;;;;;;;14.13;5.93;;;;;;;9.08;77.53;95935.72;5050936;28;20254;-80
2022/05/20 03:19:09;;;;;;;11.80;4.87;;;;;;;9.20;77.71;95952.69;5051638;28;20681;-80
2022/05/20 03:21:35;;;;;;;11.40;5.53;;;;;;;9.13;77.89;95946.50;5051718;28;20152;-80
2022/05/20 03:24:01;;;;;;;22.87;6.57;;;;;;;9.19;77.47;95947.59;5051898;28;20205;-80
2022/05/20 03:26:28;;;;;;;14.40;5.83;;;;;;;9.22;77.83;95945.47;5053299;28;20210;-80
2022/05/20 03:28:54;;;;;;;14.57;5.80;;;;;;;9.23;77.57;95956.78;5055983;28;20170;-81
2022/05/20 03:31:20;;;;;;;12.53;6.07;;;;;;;9.26;77.15;95956.41;5056116;28;20195;-81
2022/05/20 03:33:49;;;;;;;13.83;7.40;;;;;;;9.32;77.68;95959.19;5055836;28;20159;-81
2022/05/20 03:36:14;;;;;;;13.80;8.13;;;;;;;9.40;77.25;95963.56;5055419;28;20602;-81
2022/05/20 03:38:40;;;;;;;13.17;8.50;;;;;;;9.43;76.70;95966.63;5054624;28;20171;-81
2022/05/20 03:41:06;;;;;;;14.90;8.40;;;;;;;9.62;76.19;95975.84;5045114;28;20199;-81
2022/05/20 03:43:33;;;;;;;10.43;6.10;;;;;;;9.78;74.78;95977.53;5054060;28;20229;-82
2022/05/20 03:45:59;;;;;;;6.73;4.70;;;;;;;9.53;73.75;95919.09;5035741;28;20579;-81
2022/05/20 03:48:26;;;;;;;6.17;4.03;;;;;;;9.95;73.71;95984.28;5054467;28;20250;-82
2022/05/20 03:50:51;;;;;;;10.03;4.90;;;;;;;10.11;73.19;95984.13;5054237;28;20214;-81
2022/05/20 03:53:17;;;;;;;10.47;4.50;;;;;;;10.26;71.84;95989.44;5052581;28;20974;-81
2022/05/20 03:55:43;;;;;;;6.50;4.27;;;;;;;10.41;71.38;95986.81;5054373;28;20175;-81
2022/05/20 03:58:09;;;;;;;14.83;4.23;;;;;;;10.32;70.15;95951.03;5037314;28;20163;-80
2022/05/20 04:01:56;;;;;;;4.83;3.43;;;;;;;10.76;69.55;95993.97;5053582;28;20544;-80
2022/05/20 04:03:20;;;;;;;7.07;2.67;;;;;;;10.82;67.77;95987.94;5043356;28;20259;-80
2022/05/20 04:05:45;;;;;;;7.33;3.60;;;;;;;11.01;66.30;96010.28;5048464;28;20265;-81
2022/05/20 04:08:12;;;;;;;6.70;2.90;;;;;;;11.13;66.15;95995.63;5035829;28;20175;-81
2022/05/20 04:10:37;;;;;;;8.13;3.20;;;;;;;11.32;65.36;95989.75;5036300;28;20599;-81
2022/05/20 04:13:02;;;;;;;6.53;2.67;;;;;;;11.30;64.71;95954.03;5054190;28;20175;-81
2022/05/20 04:15:29;;;;;;;5.77;2.47;;;;;;;11.79;65.01;95993.66;5054909;28;20641;-81
2022/05/20 04:17:55;;;;;;;3.57;2.27;;;;;;;12.08;63.83;96003.25;5055075;28;20305;-81
2022/05/20 04:20:20;;;;;;;4.57;2.50;;;;;;;11.98;63.06;95947.34;5053461;28;20171;-81
2022/05/20 04:22:46;;;;;;;5.47;2.43;;;;;;;12.55;62.22;95993.78;5053619;28;20260;-81
2022/05/20 04:25:12;;;;;;;5.53;2.80;;;;;;;12.57;61.91;95952.97;5053796;28;20692;-80
2022/05/20 04:27:38;;;;;;;5.67;2.50;;;;;;;13.03;60.09;96013.16;5053270;28;20564;-80
2022/05/20 04:30:05;;;;;;;6.93;2.60;;;;;;;13.20;59.45;96011.81;5053413;28;20187;-79
2022/05/20 04:32:30;;;;;;;9.33;2.87;;;;;;;13.31;59.09;95987.47;5043401;28;21094;-82
2022/05/20 04:34:56;;;;;;;4.53;2.63;;;;;;;13.67;58.86;95997.69;5041452;28;20171;-81
2022/05/20 04:37:23;;;;;;;3.93;2.13;;;;;;;13.93;57.47;95992.41;5042295;28;20179;-81
2022/05/20 04:39:49;;;;;;;5.53;2.50;;;;;;;14.24;56.88;96009.53;5041473;28;20162;-81
2022/05/20 04:47:44;;;;;;;7.67;3.83;;;;;;;15.26;54.78;96020.31;5053264;28;20189;-80
2022/05/20 04:50:10;;;;;;;8.13;3.63;;;;;;;15.42;53.80;96011.03;5053176;28;20245;-79
2022/05/20 04:52:36;;;;;;;8.50;3.27;;;;;;;15.58;53.08;96029.16;5053151;28;20245;-80
2022/05/20 04:55:03;;;;;;;3.53;2.27;;;;;;;15.51;52.68;96006.31;5044084;28;20251;-80
2022/05/20 04:57:36;;;;;;;5.90;3.23;;;;;;;15.77;53.32;96032.72;5052725;28;20170;-80
2022/05/20 05:00:12;;;;;;;4.83;2.10;;;;;;;15.94;50.84;96044.47;5053214;28;20214;-80
2022/05/20 05:02:39;;;;;;;6.17;2.70;;;;;;;15.98;49.96;96039.53;5052784;28;20175;-80
2022/05/20 05:05:07;;;;;;;5.30;2.80;;;;;;;15.96;50.27;96042.41;5053794;28;20159;-79
2022/05/20 05:07:37;;;;;;;5.83;2.70;;;;;;;15.98;51.02;96040.38;5044803;28;20175;-80
2022/05/20 05:10:04;;;;;;;10.40;2.80;;;;;;;15.89;50.95;96009.78;5052197;28;20274;-80
2022/05/20 05:12:30;;;;;;;4.87;2.53;;;;;;;15.96;51.43;96004.41;5043071;28;20178;-80
2022/05/20 05:14:56;;;;;;;10.38;3.92;;;;;;;16.32;51.88;96038.25;5052674;28;20163;-80
2022/05/20 05:20:17;;;;;;;7.45;4.03;;;;;;;16.82;49.82;96037.22;5052784;28;20247;-80
2022/05/20 05:22:43;;;;;;;5.90;3.45;;;;;;;16.98;48.67;96041.94;5053009;28;20159;-80
2022/05/20 05:25:11;;;;;;;10.13;4.20;;;;;;;16.38;49.09;96014.28;5052476;28;20186;-80
2022/05/20 05:27:36;;;;;;;4.80;3.28;;;;;;;16.18;49.53;95993.19;5052412;28;20171;-80
2022/05/20 05:30:03;;;;;;;5.07;3.15;;;;;;;16.46;49.90;96027.28;5026577;28;20191;-80
2022/05/20 05:32:29;;;;;;;13.23;3.85;;;;;;;16.57;49.99;96025.78;5052020;28;20178;-80
2022/05/20 05:34:54;;;;;;;7.78;3.50;;;;;;;16.76;49.05;96037.28;5052401;28;20577;-80
2022/05/20 05:37:20;;;;;;;9.65;3.55;;;;;;;17.14;48.92;96037.88;5052325;28;20175;-80
2022/05/20 05:39:46;;;;;;;10.48;3.08;;;;;;;17.45;50.25;96036.91;5051956;28;20179;-80
2022/05/20 05:42:12;;;;;;;9.95;3.20;;;;;;;17.62;46.99;96029.13;5034338;28;20182;-80
2022/05/20 05:44:38;;;;;;;6.95;3.20;;;;;;;17.80;48.23;96017.63;5052029;28;20167;-80
2022/05/20 05:47:04;;;;;;;6.22;3.03;;;;;;;18.08;45.29;96031.13;5052257;28;20246;-80
2022/05/20 05:49:29;;;;;;;8.57;2.80;;;;;;;18.13;44.93;96019.78;5051521;28;20258;-80
2022/05/20 05:51:55;;;;;;;5.72;3.40;;;;;;;18.18;47.55;96001.22;5043646;28;20628;-80
2022/05/20 05:54:21;;;;;;;8.68;3.55;;;;;;;18.41;46.13;96017.28;5044852;28;20179;-80
2022/05/20 05:56:47;;;;;;;7.57;3.50;;;;;;;18.74;46.80;96020.22;5024708;28;20217;-80
2022/05/20 05:59:12;;;;;;;11.93;3.45;;;;;;;19.09;45.04;96020.16;5051958;28;20202;-80
2022/05/20 06:01:37;;;;;;;8.18;3.30;;;;;;;19.20;43.78;96013.97;5044083;28;20623;-80
2022/05/20 06:04:03;;;;;;;6.13;2.92;;;;;;;19.00;41.28;96016.25;5052082;28;20566;-80
2022/05/20 06:06:29;;;;;;;4.30;2.72;;;;;;;18.71;42.12;96015.31;5051772;28;20265;-80
2022/05/20 06:08:55;;;;;;;7.70;3.00;;;;;;;18.27;43.60;95982.00;5045700;28;20172;-81
2022/05/20 06:11:20;;;;;;;8.75;3.47;;;;;;;18.54;43.49;95994.88;5039992;28;20207;-80
2022/05/20 06:13:46;;;;;;;5.28;3.15;;;;;;;18.99;45.21;96005.78;5039958;28;20257;-80
2022/05/20 06:16:18;;;;;;;7.10;3.55;;;;;;;19.21;44.18;96010.25;5040000;28;20179;-80
2022/05/20 06:18:43;;;;;;;16.17;3.50;;;;;;;19.43;43.62;95996.28;5041807;28;20237;-80
2022/05/20 06:21:09;;;;;;;6.38;3.78;;;;;;;19.68;41.47;95999.44;5043233;28;20171;-80
2022/05/20 06:23:34;;;;;;;8.32;3.38;;;;;;;19.71;41.53;95998.19;5052174;28;20531;-80
2022/05/20 06:26:00;;;;;;;5.80;3.25;;;;;;;19.87;42.52;96008.91;5050011;28;20179;-80
2022/05/20 06:28:25;;;;;;;5.68;2.90;;;;;;;19.93;42.41;95991.88;5043650;28;20597;-80
2022/05/20 06:30:51;;;;;;;10.57;3.38;;;;;;;20.12;43.50;95976.44;5039756;28;20202;-80
2022/05/20 06:33:16;;;;;;;7.35;3.65;;;;;;;20.31;40.93;95955.59;5041333;28;20265;-80
2022/05/20 06:41:10;;;;;;;8.85;3.38;;;;;;;20.87;38.54;96000.06;5052513;28;20234;-80
2022/05/20 06:43:35;;;;;;;8.38;3.40;;;;;;;20.59;39.40;95978.78;5051627;28;20599;-80
2022/05/20 06:46:03;;;;;;;7.47;3.72;;;;;;;20.65;41.12;96010.72;5051419;28;20195;-80
2022/05/20 06:48:59;;;;;;;9.75;3.13;;;;;;;20.98;43.36;96003.69;5027826;28;20182;-80
2022/05/20 06:51:28;;;;;;;4.70;3.10;;;;;;;21.14;39.00;95999.34;5032034;28;20225;-81
2022/05/20 06:53:56;;;;;;;4.75;3.50;;;;;;;21.21;39.83;96003.47;5051510;28;21054;-80
2022/05/20 06:56:24;;;;;;;8.23;3.78;;;;;;;21.37;41.60;96002.59;5030320;28;20162;-80
2022/05/20 06:58:50;;;;;;;6.00;3.42;;;;;;;21.36;40.00;95979.53;5051441;28;20654;-81
2022/05/20 07:01:16;;;;;;;6.18;3.13;;;;;;;21.75;39.36;96004.38;5050514;28;20684;-81
2022/05/20 07:03:42;;;;;;;8.27;3.40;;;;;;;21.80;39.18;95984.84;5048968;28;20961;-80
2022/05/20 07:06:08;;;;;;;10.20;4.18;;;;;;;22.14;37.46;96001.56;5047795;28;20179;-81
2022/05/20 07:08:35;;;;;;;10.60;3.72;;;;;;;22.36;38.13;95990.75;5050781;28;20609;-82
2022/05/20 07:11:02;;;;;;;6.35;3.83;;;;;;;22.18;37.04;95960.53;5051522;28;20218;-82
2022/05/20 07:13:31;;;;;;;8.63;3.90;;;;;;;22.36;36.52;95980.81;5050845;28;20579;-84
2022/05/20 07:15:58;;;;;;;7.90;3.83;;;;;;;22.55;37.91;96000.81;5030789;28;20175;-84
2022/05/20 07:18:25;;;;;;;14.45;4.45;;;;;;;22.53;36.75;95986.03;5050770;28;20271;-84
2022/05/20 07:20:51;;;;;;;7.95;3.25;;;;;;;22.79;36.71;95992.41;5023062;28;20248;-84
2022/05/20 07:23:16;;;;;;;10.38;3.75;;;;;;;22.65;37.58;95946.41;5030984;28;20645;-82
2022/05/20 07:25:42;;;;;;;8.80;3.95;;;;;;;23.01;37.69;95954.63;5050765;28;20172;-82
2022/05/20 07:28:07;;;;;;;9.45;3.28;;;;;;;23.42;36.93;95991.38;5048404;28;20589;-82
2022/05/20 07:30:34;;;;;;;9.80;3.13;;;;;;;23.37;34.74;95966.34;5032633;28;20804;-82
2022/05/20 07:33:00;;;;;;;8.40;3.40;;;;;;;23.56;33.74;95989.84;5013878;28;20172;-79
2022/05/20 07:35:25;;;;;;;12.05;4.25;;;;;;;23.00;33.96;95975.34;5038748;28;20171;-82
2022/05/20 07:37:51;;;;;;;4.82;2.95;;;;;;;22.70;35.76;95959.84;5051036;28;20661;-81
2022/05/20 07:40:17;;;;;;;8.45;3.20;;;;;;;22.74;38.05;95984.31;5051914;28;20202;-81
2022/05/20 07:42:43;;;;;;;11.23;3.38;;;;;;;22.94;38.82;95974.50;5040505;28;20174;-83
2022/05/20 07:45:09;;;;;;;9.75;3.90;;;;;;;23.22;38.13;95954.47;5033391;28;20233;-81
2022/05/20 07:47:35;;;;;;;20.80;12.95;;;;;;;23.63;36.93;95986.88;5033459;28;20175;-79
2022/05/20 07:50:01;;;;;;;9.07;3.50;;;;;;;23.58;36.52;95935.81;5050565;28;20230;-81
2022/05/20 07:55:10;;;;;;;23.08;14.95;;;;;;;23.59;33.57;95970.50;5050207;28;20226;-81
2022/05/20 07:57:40;;;;;;;7.13;2.97;;;;;;;23.53;33.52;95959.97;5050613;28;20210;-79
2022/05/20 08:00:09;;;;;;;8.65;3.17;;;;;;;23.68;33.99;95968.91;5053850;28;20270;-81
2022/05/20 08:02:34;;;;;;;5.78;3.25;;;;;;;23.82;36.04;95919.97;5030670;28;20634;-77
2022/05/20 08:05:01;;;;;;;5.35;2.90;;;;;;;24.33;36.97;95959.28;5041747;28;20174;-79
2022/05/20 08:07:32;;;;;;;4.70;2.55;;;;;;;24.58;31.77;95945.00;5050145;28;20657;-80
2022/05/20 08:10:07;;;;;;;5.25;3.10;;;;;;;24.63;29.58;95957.66;5028087;28;20195;-79
2022/05/20 08:12:32;;;;;;;6.85;2.22;;;;;;;24.25;31.12;95934.81;5043379;28;20244;-79
2022/05/20 08:14:58;;;;;;;5.82;2.92;;;;;;;24.59;33.56;95954.69;5049810;28;20183;-78
2022/05/20 08:17:25;;;;;;;6.68;2.53;;;;;;;24.82;33.86;95950.63;5046317;28;20230;-77
2022/05/20 08:19:54;;;;;;;7.15;1.70;;;;;;;25.09;33.32;95952.97;5047350;28;20187;-78
2022/05/20 08:22:24;;;;;;;6.43;1.80;;;;;;;25.12;30.81;95955.13;5051380;28;20564;-78
2022/05/20 08:24:54;;;;;;;4.25;1.98;;;;;;;25.33;29.91;95934.28;5029116;28;20702;-79
2022/05/20 08:27:21;;;;;;;6.63;2.03;;;;;;;25.14;28.56;95943.00;5047512;28;20221;-77
2022/05/20 08:29:47;;;;;;;4.97;1.75;;;;;;;25.07;31.52;95950.56;5049282;28;20234;-78
2022/05/20 08:32:12;;;;;;;3.33;2.10;;;;;;;24.93;31.12;95944.13;5051404;28;20214;-78
2022/05/20 08:34:38;;;;;;;7.43;1.92;;;;;;;24.37;31.98;95938.84;5053410;28;20203;-82
2022/05/20 08:37:05;;;;;;;5.07;2.28;;;;;;;23.85;29.73;95940.97;5032711;28;20713;-81
2022/05/20 08:39:31;;;;;;;2.08;1.63;;;;;;;23.73;34.49;95938.50;5020781;28;20172;-81
2022/05/20 08:41:57;;;;;;;3.42;1.30;;;;;;;23.83;34.27;95894.69;5041302;28;20611;-82
2022/05/20 08:44:24;;;;;;;10.75;4.38;;;;;;;24.01;30.73;95896.84;5027274;28;20633;-82
2022/05/20 08:47:04;;;;;;;3.30;1.88;;;;;;;23.58;31.46;95869.38;5052699;28;20179;-82
2022/05/20 08:49:30;;;;;;;2.03;1.70;;;;;;;24.22;33.69;95898.47;5053450;28;20557;-82
2022/05/20 08:51:56;;;;;;;5.05;1.50;;;;;;;24.33;32.81;95918.09;5052910;28;20661;-82
2022/05/20 08:54:21;;;;;;;5.88;1.50;;;;;;;24.36;29.85;95882.56;5053432;28;20167;-82
2022/05/20 08:56:48;;;;;;;1.90;1.33;;;;;;;24.66;30.85;95917.50;5053478;28;20171;-81
2022/05/20 08:59:19;;;;;;;3.05;1.95;;;;;;;24.64;30.62;95889.25;5054588;28;20249;-82
2022/05/20 09:01:47;;;;;;;3.70;1.80;;;;;;;24.79;31.12;95883.81;5052053;28;20649;-81
2022/05/20 09:04:16;;;;;;;4.72;1.50;;;;;;;24.76;29.34;95863.59;5046340;28;20605;-82
2022/05/20 09:07:05;;;;;;;5.10;2.10;;;;;;;24.75;30.38;95898.88;5042107;28;20177;-82
2022/05/20 09:09:56;;;;;;;6.05;1.77;;;;;;;24.99;31.06;95894.53;5033213;28;20557;-83
2022/05/20 09:12:35;;;;;;;5.72;1.60;;;;;;;24.96;29.24;95883.50;5052416;28;20252;-82
2022/05/20 09:18:29;;;;;;;2.42;1.63;;;;;;;24.77;28.58;95891.34;5052545;28;20305;-82
2022/05/20 09:20:54;;;;;;;3.75;1.77;;;;;;;24.26;31.20;95820.69;5050883;28;20237;-82
2022/05/20 09:23:22;;;;;;;2.53;1.50;;;;;;;24.27;30.72;95844.63;5052106;28;20202;-82
2022/05/20 09:26:06;;;;;;;3.88;1.60;;;;;;;24.48;32.31;95866.09;5052642;28;21061;-82
2022/05/20 09:28:44;;;;;;;2.38;1.55;;;;;;;24.50;31.97;95867.44;5052208;28;20226;-81
2022/05/20 09:31:56;;;;;;;3.13;1.30;;;;;;;24.67;31.78;95857.16;5052263;28;20245;-82
2022/05/20 09:34:24;;;;;;;4.15;1.52;;;;;;;24.57;29.63;95864.47;4972273;28;20269;-82
2022/05/20 09:37:00;;;;;;;1.58;1.45;;;;;;;24.32;26.77;95857.25;4972135;28;20194;-83
2022/05/20 09:39:48;;;;;;;5.75;1.60;;;;;;;23.99;26.61;95831.72;5016105;28;20183;-83
2022/05/20 09:42:21;;;;;;;2.67;1.73;;;;;;;24.10;27.94;95852.16;5052327;28;20167;-82
2022/05/20 09:44:50;;;;;;;8.40;1.55;;;;;;;24.10;27.16;95848.66;5052837;28;20211;-82
2022/05/20 09:47:32;;;;;;;9.23;1.40;;;;;;;24.10;26.68;95844.09;5052940;28;20250;-82
2022/05/20 09:50:38;;;;;;;3.22;1.83;;;;;;;23.81;29.48;95843.03;5032380;28;21069;-83
2022/05/20 09:53:32;;;;;;;2.70;1.33;;;;;;;23.97;31.77;95842.75;5034514;28;20216;-84
2022/05/20 09:56:30;;;;;;;5.85;1.30;;;;;;;24.12;26.18;95843.81;5031773;28;20167;-83
2022/05/20 09:59:05;;;;;;;4.13;1.30;;;;;;;23.95;27.88;95793.00;5050626;28;20167;-84
2022/05/20 10:01:31;;;;;;;1.27;1.17;;;;;;;24.20;26.47;95819.88;5052247;28;20174;-84
2022/05/20 10:04:02;;;;;;;4.05;2.10;;;;;;;24.27;26.87;95835.75;5052134;28;20178;-84
2022/05/20 10:06:36;;;;;;;2.10;1.20;;;;;;;24.05;25.07;95839.50;5042040;28;20602;-83
2022/05/20 10:09:16;;;;;;;2.50;1.30;;;;;;;23.96;29.28;95808.03;5030845;28;20171;-82
2022/05/20 10:11:56;;;;;;;6.75;1.55;;;;;;;24.15;29.67;95814.47;5039248;28;20210;-83
2022/05/20 10:14:32;;;;;;;5.93;1.50;;;;;;;24.28;29.31;95799.69;5040057;28;20553;-84
2022/05/20 10:17:14;;;;;;;18.58;2.60;;;;;;;24.27;28.63;95785.41;5045220;28;20182;-84
2022/05/20 10:20:08;;;;;;;5.07;1.35;;;;;;;24.60;30.63;95815.44;5051626;28;20195;-83
2022/05/20 10:22:42;;;;;;;1.67;1.50;;;;;;;24.71;29.81;95817.03;5031847;28;20229;-84
2022/05/20 10:25:34;;;;;;;2.90;1.42;;;;;;;24.81;30.79;95806.22;5050501;28;20249;-83
2022/05/20 10:34:11;;;;;;;3.47;1.15;;;;;;;24.36;23.62;95802.63;5047586;28;20178;-84
2022/05/20 10:37:09;;;;;;;2.42;1.60;;;;;;;24.00;24.57;95782.22;5050525;28;20163;-84
2022/05/20 10:39:53;;;;;;;3.38;1.23;;;;;;;23.95;26.00;95790.31;5049917;28;20246;-83
2022/05/20 10:42:52;;;;;;;1.95;1.20;;;;;;;23.83;22.52;95787.91;5050510;28;20591;-83
2022/05/20 10:49:12;;;;;;;2.88;1.05;;;;;;;23.45;22.17;95718.53;5015944;28;20201;-80
2022/05/20 10:51:59;;;;;;;3.08;1.17;;;;;;;23.92;25.96;95775.50;5044144;28;20210;-80
2022/05/20 10:54:46;;;;;;;2.47;0.95;;;;;;;23.85;23.82;95782.25;5049470;28;20710;-79
2022/05/20 10:57:39;;;;;;;3.90;1.35;;;;;;;23.46;22.03;95763.16;5030450;28;20175;-87
2022/05/20 11:00:20;;;;;;;3.13;2.08;;;;;;;23.25;21.43;95762.34;5032303;28;20163;-85
2022/05/20 11:03:11;;;;;;;5.45;1.98;;;;;;;22.92;21.58;95734.88;5050648;28;20578;-86
2022/05/20 11:06:00;;;;;;;6.10;2.35;;;;;;;22.63;24.60;95751.72;5038940;28;20182;-84
2022/05/20 11:08:51;;;;;;;3.53;2.30;;;;;;;22.54;24.76;95756.81;5048271;28;20246;-85
2022/05/20 11:11:26;;;;;;;3.78;1.88;;;;;;;22.48;24.62;95744.44;5030957;28;20218;-86
2022/05/20 11:14:13;;;;;;;3.38;2.25;;;;;;;22.61;28.90;95746.63;5045215;28;20163;-85
2022/05/20 11:16:57;;;;;;;7.85;2.13;;;;;;;22.84;30.75;95756.09;5050356;28;20171;-85
2022/05/20 11:19:59;;;;;;;3.25;1.55;;;;;;;22.92;23.52;95732.22;5042429;28;20179;-85
2022/05/20 11:22:52;;;;;;;5.72;1.67;;;;;;;23.09;24.65;95744.63;5048793;28;20198;-87
2022/05/20 11:25:55;;;;;;;3.35;1.63;;;;;;;23.21;25.48;95734.38;5048648;28;20159;-85
2022/05/20 11:28:39;;;;;;;1.95;1.70;;;;;;;23.32;25.45;95730.63;5025158;28;20609;-83
2022/05/20 11:31:32;;;;;;;2.42;1.75;;;;;;;23.47;26.12;95729.81;5050342;28;20270;-86
2022/05/20 11:34:32;;;;;;;2.25;1.50;;;;;;;23.41;22.67;95712.91;5030701;28;20174;-84
2022/05/20 11:37:04;;;;;;;4.40;1.58;;;;;;;23.55;22.81;95716.66;5029740;28;20748;-83
2022/05/20 11:39:39;;;;;;;1.65;1.25;;;;;;;23.58;22.96;95716.13;5048740;28;21088;-81
2022/05/20 11:42:15;;;;;;;6.00;2.78;;;;;;;23.60;24.36;95714.00;5050674;28;20177;-86
2022/05/20 11:45:20;;;;;;;6.75;3.42;;;;;;;23.73;25.45;95712.59;5050639;28;20175;-84
2022/05/20 11:48:16;;;;;;;2.55;2.03;;;;;;;23.81;23.05;95709.34;5050391;28;20183;-84
2022/05/20 11:51:00;;;;;;;4.75;2.03;;;;;;;23.80;25.19;95707.75;5054271;28;20191;-84
2022/05/20 11:53:41;;;;;;;8.02;2.00;;;;;;;23.62;21.43;95671.47;5053999;28;20261;-83
2022/05/20 11:56:31;;;;;;;2.20;1.90;;;;;;;23.65;20.97;95679.00;5053143;28;20163;-83
2022/05/20 11:59:17;;;;;;;3.85;1.85;;;;;;;23.65;20.45;95688.94;5036485;28;20171;-82
2022/05/20 12:01:46;;;;;;;6.95;2.33;;;;;;;23.57;24.02;95684.94;5047571;28;20190;-82
2022/05/20 12:04:13;;;;;;;5.07;1.63;;;;;;;23.58;22.68;95678.50;5045509;28;20179;-84
2022/05/20 12:06:47;;;;;;;2.65;1.70;;;;;;;23.80;21.17;95690.78;5045158;28;20179;-85
2022/05/20 12:09:44;;;;;;;4.57;1.67;;;;;;;23.86;21.08;95685.16;5031768;28;20250;-82
2022/05/20 12:12:15;;;;;;;5.78;1.88;;;;;;;23.89;20.14;95695.34;5049892;28;20201;-81
2022/05/20 12:14:59;;;;;;;2.33;1.38;;;;;;;23.84;20.88;95681.91;5051870;28;20186;-86
2022/05/20 12:17:33;;;;;;;4.25;1.30;;;;;;;23.73;20.28;95672.25;5053111;28;20225;-83
2022/05/20 12:25:53;;;;;;;2.22;1.40;;;;;;;23.78;22.44;95650.75;5046388;28;20195;-85
2022/05/20 12:28:21;;;;;;;2.47;1.45;;;;;;;24.01;25.41;95658.19;5045638;28;20179;-86
2022/05/20 12:31:06;;;;;;;4.60;1.67;;;;;;;24.10;23.14;95660.31;5047574;28;20298;-86
2022/05/20 12:33:56;;;;;;;4.00;1.50;;;;;;;24.08;22.56;95653.31;5032154;28;20187;-86
2022/05/20 12:36:28;;;;;;;3.90;1.50;;;;;;;23.98;22.97;95649.84;5054706;28;20183;-85
2022/05/20 12:39:14;;;;;;;1.42;1.30;;;;;;;24.07;22.65;95656.28;5033338;28;20187;-86